Airfield :
LOGIN :

Register | Disclaimer

   EN    FR    IT 

 










Legend :    VFR   Marginal VFR   IFR   Intensive IFR   Very Intensive IFR
Visi :
Ceiling :
>= 8 km
>= 3000ft
5 to 8 km
1000 to 3000 ft
1500m to 5 km
500 to 1000 ft
800 to 1500m
200 to 500 ft
< 800m
< 200 ft
Symbols :   Thunderstorms  Fog  Heavy snow  Heavy precipitations  Wind > 20 kt
SIGMETs :     Misc.  Thunderstorms  Icing  Turbulence  Mountain Waves  Volcanic Ashes







- Airport Elevation : 46 ft
- IATA code : SNN


EINN - Shannon

CURRENT METAR :
  • 250630Z 12006KT 9999 FEW007 SCT010 BKN014 13/11 Q1021 NOSIG

EXPIRED METARs :
  • 250600Z 11006KT 9999 FEW008 BKN011 13/11 Q1021 NOSIG
  • 250530Z 12007KT 9999 BKN011 13/11 Q1021 NOSIG
  • 250500Z 12007KT 9999 FEW008 SCT013 12/11 Q1021 NOSIG
  • 250430Z 11006KT 9999 FEW007 13/11 Q1020 NOSIG
  • 250400Z 09005KT 9999 FEW010 SCT013 13/11 Q1020 NOSIG

TAF TAF EINN
Valid from the 25 at 06:00 until the 26 at 06:00 UTC


250500Z 2506/2606 12010KT 9999 FEW008 SCT013
TEMPO 2506/2509 BKN013
PROB40
TEMPO 2506/2508 BKN008
BECMG 2508/2511 15012KT
BECMG 2520/2523 12010KT
No reported NOTAMs for that airfield.



MET'MAP, your aeronautical weather chart ! - Copyright ORBIFLY December 2007 - Disclaimer

ORBIFLY MET'MAP TEAM :

Programming & Development : Alexandra Zaïnal
Concept & Development : Baudouin d'Aumeries
Co-Development & Prog : Marc-Olivier Méhu
Technical & hardware support : Manuel Goepfert

Contact : metmap@orbifly.com




SOURCES & CREDITS :

   NOAA